sensor_id;sensor_type;location;lat;lon;timestamp;temperature;humidity
21772;DHT22;11047;47.904;8.110;2022-08-02T00:00:00;14.60;99.90
21772;DHT22;11047;47.904;8.110;2022-08-02T00:02:28;14.60;99.90
21772;DHT22;11047;47.904;8.110;2022-08-02T00:04:55;14.60;99.90
21772;DHT22;11047;47.904;8.110;2022-08-02T00:07:22;14.60;99.90
21772;DHT22;11047;47.904;8.110;2022-08-02T00:09:49;14.50;99.90
21772;DHT22;11047;47.904;8.110;2022-08-02T00:12:16;14.50;99.90
21772;DHT22;11047;47.904;8.110;2022-08-02T00:14:43;14.40;99.90
21772;DHT22;11047;47.904;8.110;2022-08-02T00:17:09;14.40;99.90
21772;DHT22;11047;47.904;8.110;2022-08-02T00:19:38;14.30;99.90
21772;DHT22;11047;47.904;8.110;2022-08-02T00:22:05;14.30;99.90
21772;DHT22;11047;47.904;8.110;2022-08-02T00:24:32;14.40;99.90
21772;DHT22;11047;47.904;8.110;2022-08-02T00:26:59;14.40;99.90
21772;DHT22;11047;47.904;8.110;2022-08-02T00:29:28;14.40;99.90
21772;DHT22;11047;47.904;8.110;2022-08-02T00:31:55;14.50;99.90
21772;DHT22;11047;47.904;8.110;2022-08-02T00:34:22;14.40;99.90
21772;DHT22;11047;47.904;8.110;2022-08-02T00:36:50;14.30;99.90
21772;DHT22;11047;47.904;8.110;2022-08-02T00:39:17;14.30;99.90
21772;DHT22;11047;47.904;8.110;2022-08-02T00:41:45;14.20;99.90
21772;DHT22;11047;47.904;8.110;2022-08-02T00:44:13;13.90;99.90
21772;DHT22;11047;47.904;8.110;2022-08-02T00:46:40;13.90;99.90
21772;DHT22;11047;47.904;8.110;2022-08-02T00:49:07;13.70;99.90
21772;DHT22;11047;47.904;8.110;2022-08-02T00:51:34;13.60;99.90
21772;DHT22;11047;47.904;8.110;2022-08-02T00:54:02;13.60;99.90
21772;DHT22;11047;47.904;8.110;2022-08-02T00:56:30;13.70;99.90
21772;DHT22;11047;47.904;8.110;2022-08-02T00:58:57;13.70;99.90
21772;DHT22;11047;47.904;8.110;2022-08-02T01:01:24;13.80;99.90
21772;DHT22;11047;47.904;8.110;2022-08-02T01:04:03;13.80;99.90
21772;DHT22;11047;47.904;8.110;2022-08-02T01:06:30;13.60;99.90
21772;DHT22;11047;47.904;8.110;2022-08-02T01:08:59;13.50;99.90
21772;DHT22;11047;47.904;8.110;2022-08-02T01:11:28;13.50;99.90
21772;DHT22;11047;47.904;8.110;2022-08-02T01:13:57;13.50;99.90
21772;DHT22;11047;47.904;8.110;2022-08-02T01:16:27;13.50;99.90
21772;DHT22;11047;47.904;8.110;2022-08-02T01:19:00;13.40;99.90
21772;DHT22;11047;47.904;8.110;2022-08-02T01:24:39;13.50;99.90
21772;DHT22;11047;47.904;8.110;2022-08-02T01:27:26;13.40;99.90
21772;DHT22;11047;47.904;8.110;2022-08-02T01:29:58;13.60;99.90
21772;DHT22;11047;47.904;8.110;2022-08-02T01:32:30;13.40;99.90
21772;DHT22;11047;47.904;8.110;2022-08-02T01:35:02;13.40;99.90
21772;DHT22;11047;47.904;8.110;2022-08-02T01:37:38;13.40;99.90
21772;DHT22;11047;47.904;8.110;2022-08-02T01:40:09;13.40;99.90
21772;DHT22;11047;47.904;8.110;2022-08-02T01:42:39;13.50;99.90
21772;DHT22;11047;47.904;8.110;2022-08-02T01:45:10;13.40;99.90
21772;DHT22;11047;47.904;8.110;2022-08-02T01:47:39;13.40;99.90
21772;DHT22;11047;47.904;8.110;2022-08-02T01:50:11;13.40;99.90
21772;DHT22;11047;47.904;8.110;2022-08-02T01:52:50;13.20;99.90
21772;DHT22;11047;47.904;8.110;2022-08-02T01:55:20;13.00;99.90
21772;DHT22;11047;47.904;8.110;2022-08-02T01:57:49;13.00;99.90
21772;DHT22;11047;47.904;8.110;2022-08-02T02:00:29;12.90;99.90
21772;DHT22;11047;47.904;8.110;2022-08-02T02:02:58;12.90;99.90
21772;DHT22;11047;47.904;8.110;2022-08-02T02:05:28;12.90;99.90
21772;DHT22;11047;47.904;8.110;2022-08-02T02:07:58;12.90;99.90
21772;DHT22;11047;47.904;8.110;2022-08-02T02:10:27;13.00;99.90
21772;DHT22;11047;47.904;8.110;2022-08-02T02:12:55;13.00;99.90
21772;DHT22;11047;47.904;8.110;2022-08-02T02:15:24;13.00;99.90
21772;DHT22;11047;47.904;8.110;2022-08-02T02:17:53;13.00;99.90
21772;DHT22;11047;47.904;8.110;2022-08-02T02:20:22;12.90;99.90
21772;DHT22;11047;47.904;8.110;2022-08-02T02:22:49;12.80;99.90
21772;DHT22;11047;47.904;8.110;2022-08-02T02:25:18;12.80;99.90
21772;DHT22;11047;47.904;8.110;2022-08-02T02:27:51;12.80;99.90
21772;DHT22;11047;47.904;8.110;2022-08-02T02:30:19;12.60;99.90
21772;DHT22;11047;47.904;8.110;2022-08-02T02:32:49;12.50;99.90
21772;DHT22;11047;47.904;8.110;2022-08-02T02:35:18;12.50;99.90
21772;DHT22;11047;47.904;8.110;2022-08-02T02:37:47;12.60;99.90
21772;DHT22;11047;47.904;8.110;2022-08-02T02:40:16;12.70;99.90
21772;DHT22;11047;47.904;8.110;2022-08-02T02:42:45;12.90;99.90
21772;DHT22;11047;47.904;8.110;2022-08-02T02:45:14;12.80;99.90
21772;DHT22;11047;47.904;8.110;2022-08-02T02:47:43;12.70;99.90
21772;DHT22;11047;47.904;8.110;2022-08-02T02:50:10;12.70;99.90
21772;DHT22;11047;47.904;8.110;2022-08-02T02:52:39;12.60;99.90
21772;DHT22;11047;47.904;8.110;2022-08-02T02:55:07;12.50;99.90
21772;DHT22;11047;47.904;8.110;2022-08-02T02:57:36;12.60;99.90
21772;DHT22;11047;47.904;8.110;2022-08-02T03:00:04;12.60;99.90
21772;DHT22;11047;47.904;8.110;2022-08-02T03:02:33;12.60;99.90
21772;DHT22;11047;47.904;8.110;2022-08-02T03:05:01;12.60;99.90
21772;DHT22;11047;47.904;8.110;2022-08-02T03:07:28;12.60;99.90
21772;DHT22;11047;47.904;8.110;2022-08-02T03:09:57;12.60;99.90
21772;DHT22;11047;47.904;8.110;2022-08-02T03:12:24;12.40;99.90
21772;DHT22;11047;47.904;8.110;2022-08-02T03:14:52;12.50;99.90
21772;DHT22;11047;47.904;8.110;2022-08-02T03:17:19;12.60;99.90
21772;DHT22;11047;47.904;8.110;2022-08-02T03:19:46;12.60;99.90
21772;DHT22;11047;47.904;8.110;2022-08-02T03:22:13;12.50;99.90
21772;DHT22;11047;47.904;8.110;2022-08-02T03:24:40;12.50;99.90
21772;DHT22;11047;47.904;8.110;2022-08-02T03:27:08;12.40;99.90
21772;DHT22;11047;47.904;8.110;2022-08-02T03:29:35;12.30;99.90
21772;DHT22;11047;47.904;8.110;2022-08-02T03:32:03;12.20;99.90
21772;DHT22;11047;47.904;8.110;2022-08-02T03:34:30;12.30;99.90
21772;DHT22;11047;47.904;8.110;2022-08-02T03:36:57;12.30;99.90
21772;DHT22;11047;47.904;8.110;2022-08-02T03:39:25;12.30;99.90
21772;DHT22;11047;47.904;8.110;2022-08-02T03:41:53;12.20;99.90
21772;DHT22;11047;47.904;8.110;2022-08-02T03:44:23;12.20;99.90
21772;DHT22;11047;47.904;8.110;2022-08-02T03:46:51;12.20;99.90
21772;DHT22;11047;47.904;8.110;2022-08-02T03:49:19;12.30;99.90
21772;DHT22;11047;47.904;8.110;2022-08-02T03:51:46;12.30;99.90
21772;DHT22;11047;47.904;8.110;2022-08-02T03:54:14;12.30;99.90
21772;DHT22;11047;47.904;8.110;2022-08-02T03:56:42;12.30;99.90
21772;DHT22;11047;47.904;8.110;2022-08-02T03:59:11;12.30;99.90
21772;DHT22;11047;47.904;8.110;2022-08-02T04:01:40;12.20;99.90
21772;DHT22;11047;47.904;8.110;2022-08-02T04:04:08;12.20;99.90
21772;DHT22;11047;47.904;8.110;2022-08-02T04:06:35;12.20;99.90
21772;DHT22;11047;47.904;8.110;2022-08-02T04:09:02;11.90;99.90
21772;DHT22;11047;47.904;8.110;2022-08-02T04:11:29;11.90;99.90
21772;DHT22;11047;47.904;8.110;2022-08-02T04:13:56;11.90;99.90
21772;DHT22;11047;47.904;8.110;2022-08-02T04:16:28;12.00;99.90
21772;DHT22;11047;47.904;8.110;2022-08-02T04:19:01;12.00;99.90
21772;DHT22;11047;47.904;8.110;2022-08-02T04:21:31;12.10;99.90
21772;DHT22;11047;47.904;8.110;2022-08-02T04:23:59;12.20;99.90
21772;DHT22;11047;47.904;8.110;2022-08-02T04:26:28;12.10;99.90
21772;DHT22;11047;47.904;8.110;2022-08-02T04:28:55;12.00;99.90
21772;DHT22;11047;47.904;8.110;2022-08-02T04:31:23;12.00;99.90
21772;DHT22;11047;47.904;8.110;2022-08-02T04:33:51;11.90;99.90
21772;DHT22;11047;47.904;8.110;2022-08-02T04:36:19;12.00;99.90
21772;DHT22;11047;47.904;8.110;2022-08-02T04:38:47;12.10;99.90
21772;DHT22;11047;47.904;8.110;2022-08-02T04:41:15;12.10;99.90
21772;DHT22;11047;47.904;8.110;2022-08-02T04:43:42;12.20;99.90
21772;DHT22;11047;47.904;8.110;2022-08-02T04:46:09;12.20;99.90
21772;DHT22;11047;47.904;8.110;2022-08-02T04:48:35;12.30;99.90
21772;DHT22;11047;47.904;8.110;2022-08-02T04:51:02;12.40;99.90
21772;DHT22;11047;47.904;8.110;2022-08-02T04:53:31;12.50;99.90
21772;DHT22;11047;47.904;8.110;2022-08-02T04:55:58;12.40;99.90
21772;DHT22;11047;47.904;8.110;2022-08-02T04:58:25;12.50;99.90
21772;DHT22;11047;47.904;8.110;2022-08-02T05:00:51;12.50;99.90
21772;DHT22;11047;47.904;8.110;2022-08-02T05:03:18;12.60;99.90
21772;DHT22;11047;47.904;8.110;2022-08-02T05:05:45;12.70;99.90
21772;DHT22;11047;47.904;8.110;2022-08-02T05:08:12;12.70;99.90
21772;DHT22;11047;47.904;8.110;2022-08-02T05:10:40;12.80;99.90
21772;DHT22;11047;47.904;8.110;2022-08-02T05:13:07;12.80;99.90
21772;DHT22;11047;47.904;8.110;2022-08-02T05:15:34;12.90;99.90
21772;DHT22;11047;47.904;8.110;2022-08-02T05:18:01;13.10;99.90
21772;DHT22;11047;47.904;8.110;2022-08-02T05:20:28;13.20;99.90
21772;DHT22;11047;47.904;8.110;2022-08-02T05:22:55;13.30;99.90
21772;DHT22;11047;47.904;8.110;2022-08-02T05:25:22;13.40;99.90
21772;DHT22;11047;47.904;8.110;2022-08-02T05:27:50;13.50;99.90
21772;DHT22;11047;47.904;8.110;2022-08-02T05:30:17;13.60;99.90
21772;DHT22;11047;47.904;8.110;2022-08-02T05:32:45;13.60;99.90
21772;DHT22;11047;47.904;8.110;2022-08-02T05:35:15;13.70;99.90
21772;DHT22;11047;47.904;8.110;2022-08-02T05:37:42;13.90;99.90
21772;DHT22;11047;47.904;8.110;2022-08-02T05:40:09;14.00;99.90
21772;DHT22;11047;47.904;8.110;2022-08-02T05:42:36;14.10;99.90
21772;DHT22;11047;47.904;8.110;2022-08-02T05:45:05;14.20;99.90
21772;DHT22;11047;47.904;8.110;2022-08-02T05:47:33;14.30;99.90
21772;DHT22;11047;47.904;8.110;2022-08-02T05:50:00;14.40;99.90
21772;DHT22;11047;47.904;8.110;2022-08-02T05:52:35;14.50;99.90
21772;DHT22;11047;47.904;8.110;2022-08-02T05:55:11;14.50;99.90
21772;DHT22;11047;47.904;8.110;2022-08-02T05:57:47;14.70;99.90
21772;DHT22;11047;47.904;8.110;2022-08-02T06:00:17;14.80;99.90
21772;DHT22;11047;47.904;8.110;2022-08-02T06:03:03;15.00;99.90
21772;DHT22;11047;47.904;8.110;2022-08-02T06:05:33;15.00;99.90
21772;DHT22;11047;47.904;8.110;2022-08-02T06:08:01;15.00;99.90
21772;DHT22;11047;47.904;8.110;2022-08-02T06:10:29;15.00;99.90
21772;DHT22;11047;47.904;8.110;2022-08-02T06:13:06;15.20;99.90
21772;DHT22;11047;47.904;8.110;2022-08-02T06:15:35;15.20;99.90
21772;DHT22;11047;47.904;8.110;2022-08-02T06:18:03;15.30;99.90
21772;DHT22;11047;47.904;8.110;2022-08-02T06:20:31;15.40;99.90
21772;DHT22;11047;47.904;8.110;2022-08-02T06:23:00;15.50;99.90
21772;DHT22;11047;47.904;8.110;2022-08-02T06:25:28;15.50;99.90
21772;DHT22;11047;47.904;8.110;2022-08-02T06:27:56;15.60;99.90
21772;DHT22;11047;47.904;8.110;2022-08-02T06:30:24;15.70;99.90
21772;DHT22;11047;47.904;8.110;2022-08-02T06:32:52;15.80;99.90
21772;DHT22;11047;47.904;8.110;2022-08-02T06:35:19;15.90;99.90
21772;DHT22;11047;47.904;8.110;2022-08-02T06:37:50;16.10;99.90
21772;DHT22;11047;47.904;8.110;2022-08-02T06:40:25;16.10;99.90
21772;DHT22;11047;47.904;8.110;2022-08-02T06:43:02;16.20;99.90
21772;DHT22;11047;47.904;8.110;2022-08-02T06:45:32;16.40;99.90
21772;DHT22;11047;47.904;8.110;2022-08-02T06:48:02;16.60;99.90
21772;DHT22;11047;47.904;8.110;2022-08-02T06:50:29;16.70;99.90
21772;DHT22;11047;47.904;8.110;2022-08-02T06:52:56;16.80;99.90
21772;DHT22;11047;47.904;8.110;2022-08-02T06:55:23;17.10;99.90
21772;DHT22;11047;47.904;8.110;2022-08-02T06:57:50;19.10;99.90
21772;DHT22;11047;47.904;8.110;2022-08-02T07:00:17;20.90;99.90
21772;DHT22;11047;47.904;8.110;2022-08-02T07:02:44;20.70;99.90
21772;DHT22;11047;47.904;8.110;2022-08-02T07:05:12;20.40;99.90
21772;DHT22;11047;47.904;8.110;2022-08-02T07:07:39;20.40;99.90
21772;DHT22;11047;47.904;8.110;2022-08-02T07:10:07;20.00;99.90
21772;DHT22;11047;47.904;8.110;2022-08-02T07:12:34;19.60;99.90
21772;DHT22;11047;47.904;8.110;2022-08-02T07:15:03;20.10;99.90
21772;DHT22;11047;47.904;8.110;2022-08-02T07:17:31;21.50;99.90
21772;DHT22;11047;47.904;8.110;2022-08-02T07:19:59;24.20;99.90
21772;DHT22;11047;47.904;8.110;2022-08-02T07:22:27;26.80;99.90
21772;DHT22;11047;47.904;8.110;2022-08-02T07:24:56;29.60;99.90
21772;DHT22;11047;47.904;8.110;2022-08-02T07:27:23;30.40;99.90
21772;DHT22;11047;47.904;8.110;2022-08-02T07:29:50;28.90;99.90
21772;DHT22;11047;47.904;8.110;2022-08-02T07:32:19;27.10;99.90
21772;DHT22;11047;47.904;8.110;2022-08-02T07:34:47;25.60;99.90
21772;DHT22;11047;47.904;8.110;2022-08-02T07:37:14;24.50;99.90
21772;DHT22;11047;47.904;8.110;2022-08-02T07:39:42;23.60;99.90
21772;DHT22;11047;47.904;8.110;2022-08-02T07:42:09;23.40;99.90
21772;DHT22;11047;47.904;8.110;2022-08-02T07:44:36;23.30;99.90
21772;DHT22;11047;47.904;8.110;2022-08-02T07:47:03;23.30;99.90
21772;DHT22;11047;47.904;8.110;2022-08-02T07:49:30;23.30;99.90
21772;DHT22;11047;47.904;8.110;2022-08-02T07:51:57;23.40;99.90
21772;DHT22;11047;47.904;8.110;2022-08-02T07:54:24;23.40;99.90
21772;DHT22;11047;47.904;8.110;2022-08-02T07:56:52;23.20;99.90
21772;DHT22;11047;47.904;8.110;2022-08-02T07:59:20;23.20;99.90
21772;DHT22;11047;47.904;8.110;2022-08-02T08:01:47;23.40;99.90
21772;DHT22;11047;47.904;8.110;2022-08-02T08:04:14;23.30;99.90
21772;DHT22;11047;47.904;8.110;2022-08-02T08:06:41;23.60;99.90
21772;DHT22;11047;47.904;8.110;2022-08-02T08:09:09;23.10;99.90
21772;DHT22;11047;47.904;8.110;2022-08-02T08:11:35;22.70;99.90
21772;DHT22;11047;47.904;8.110;2022-08-02T08:14:04;22.70;99.90
21772;DHT22;11047;47.904;8.110;2022-08-02T08:16:31;22.90;99.90
21772;DHT22;11047;47.904;8.110;2022-08-02T08:18:58;23.00;99.90
21772;DHT22;11047;47.904;8.110;2022-08-02T08:21:27;23.00;99.90
21772;DHT22;11047;47.904;8.110;2022-08-02T08:23:54;23.40;99.90
21772;DHT22;11047;47.904;8.110;2022-08-02T08:26:21;23.90;99.90
21772;DHT22;11047;47.904;8.110;2022-08-02T08:28:48;24.20;99.90
21772;DHT22;11047;47.904;8.110;2022-08-02T08:31:16;24.20;99.90
21772;DHT22;11047;47.904;8.110;2022-08-02T08:33:43;24.10;99.90
21772;DHT22;11047;47.904;8.110;2022-08-02T08:36:10;23.80;99.90
21772;DHT22;11047;47.904;8.110;2022-08-02T08:38:36;23.70;99.90
21772;DHT22;11047;47.904;8.110;2022-08-02T08:41:03;23.20;99.90
21772;DHT22;11047;47.904;8.110;2022-08-02T08:43:30;23.10;99.90
21772;DHT22;11047;47.904;8.110;2022-08-02T08:45:57;23.50;99.90
21772;DHT22;11047;47.904;8.110;2022-08-02T08:48:26;24.30;99.90
21772;DHT22;11047;47.904;8.110;2022-08-02T08:50:56;24.90;99.90
21772;DHT22;11047;47.904;8.110;2022-08-02T08:53:28;24.90;99.90
21772;DHT22;11047;47.904;8.110;2022-08-02T08:55:56;25.50;99.90
21772;DHT22;11047;47.904;8.110;2022-08-02T08:58:24;25.60;99.90
21772;DHT22;11047;47.904;8.110;2022-08-02T09:00:51;25.90;99.90
21772;DHT22;11047;47.904;8.110;2022-08-02T09:03:19;25.90;99.90
21772;DHT22;11047;47.904;8.110;2022-08-02T09:05:47;26.20;99.90
21772;DHT22;11047;47.904;8.110;2022-08-02T09:08:14;26.40;99.90
21772;DHT22;11047;47.904;8.110;2022-08-02T09:10:44;26.30;99.90
21772;DHT22;11047;47.904;8.110;2022-08-02T09:13:14;26.60;99.90
21772;DHT22;11047;47.904;8.110;2022-08-02T09:15:52;27.10;99.90
21772;DHT22;11047;47.904;8.110;2022-08-02T09:18:20;27.00;99.90
21772;DHT22;11047;47.904;8.110;2022-08-02T09:20:56;27.00;99.90
21772;DHT22;11047;47.904;8.110;2022-08-02T09:23:24;26.40;99.90
21772;DHT22;11047;47.904;8.110;2022-08-02T09:25:55;25.90;99.90
21772;DHT22;11047;47.904;8.110;2022-08-02T09:28:26;25.60;99.90
21772;DHT22;11047;47.904;8.110;2022-08-02T09:30:56;25.40;99.90
21772;DHT22;11047;47.904;8.110;2022-08-02T09:33:24;25.50;99.90
21772;DHT22;11047;47.904;8.110;2022-08-02T09:35:59;25.50;99.90
21772;DHT22;11047;47.904;8.110;2022-08-02T09:38:27;25.10;99.90
21772;DHT22;11047;47.904;8.110;2022-08-02T09:40:55;25.60;99.90
21772;DHT22;11047;47.904;8.110;2022-08-02T09:43:35;25.70;99.90
21772;DHT22;11047;47.904;8.110;2022-08-02T09:46:10;25.70;99.90
21772;DHT22;11047;47.904;8.110;2022-08-02T09:48:46;26.10;99.90
21772;DHT22;11047;47.904;8.110;2022-08-02T09:51:16;26.50;99.90
21772;DHT22;11047;47.904;8.110;2022-08-02T09:53:43;27.00;99.90
21772;DHT22;11047;47.904;8.110;2022-08-02T09:56:10;26.80;99.90
21772;DHT22;11047;47.904;8.110;2022-08-02T09:58:38;27.10;99.90
21772;DHT22;11047;47.904;8.110;2022-08-02T10:01:05;27.40;99.90
21772;DHT22;11047;47.904;8.110;2022-08-02T10:03:32;27.20;99.90
21772;DHT22;11047;47.904;8.110;2022-08-02T10:05:59;26.70;99.90
21772;DHT22;11047;47.904;8.110;2022-08-02T10:08:28;26.40;99.90
21772;DHT22;11047;47.904;8.110;2022-08-02T10:10:55;26.30;99.90
21772;DHT22;11047;47.904;8.110;2022-08-02T10:13:28;26.80;99.90
21772;DHT22;11047;47.904;8.110;2022-08-02T10:15:56;27.20;99.90
21772;DHT22;11047;47.904;8.110;2022-08-02T10:18:23;26.80;99.90
21772;DHT22;11047;47.904;8.110;2022-08-02T10:20:53;27.00;99.90
21772;DHT22;11047;47.904;8.110;2022-08-02T10:23:24;26.40;99.90
21772;DHT22;11047;47.904;8.110;2022-08-02T10:25:54;26.20;99.90
21772;DHT22;11047;47.904;8.110;2022-08-02T10:28:26;26.60;99.90
21772;DHT22;11047;47.904;8.110;2022-08-02T10:30:55;27.00;99.90
21772;DHT22;11047;47.904;8.110;2022-08-02T10:33:23;26.80;99.90
21772;DHT22;11047;47.904;8.110;2022-08-02T10:35:53;27.70;99.90
21772;DHT22;11047;47.904;8.110;2022-08-02T10:38:23;27.80;99.90
21772;DHT22;11047;47.904;8.110;2022-08-02T10:40:54;28.00;99.90
21772;DHT22;11047;47.904;8.110;2022-08-02T10:43:40;27.90;99.90
21772;DHT22;11047;47.904;8.110;2022-08-02T10:46:35;27.90;99.90
21772;DHT22;11047;47.904;8.110;2022-08-02T10:49:08;27.70;99.90
21772;DHT22;11047;47.904;8.110;2022-08-02T10:51:54;28.00;99.90
21772;DHT22;11047;47.904;8.110;2022-08-02T10:54:23;27.70;99.90
21772;DHT22;11047;47.904;8.110;2022-08-02T10:56:53;28.10;99.90
21772;DHT22;11047;47.904;8.110;2022-08-02T10:59:25;28.30;99.90
21772;DHT22;11047;47.904;8.110;2022-08-02T11:01:53;27.70;99.90
21772;DHT22;11047;47.904;8.110;2022-08-02T11:04:30;27.80;99.90
21772;DHT22;11047;47.904;8.110;2022-08-02T11:07:10;28.00;99.90
21772;DHT22;11047;47.904;8.110;2022-08-02T11:09:39;28.20;99.90
21772;DHT22;11047;47.904;8.110;2022-08-02T11:12:09;27.70;99.90
21772;DHT22;11047;47.904;8.110;2022-08-02T11:14:39;27.70;99.90
21772;DHT22;11047;47.904;8.110;2022-08-02T11:17:09;28.00;99.90
21772;DHT22;11047;47.904;8.110;2022-08-02T11:22:37;28.10;99.90
21772;DHT22;11047;47.904;8.110;2022-08-02T11:25:31;28.50;99.90
21772;DHT22;11047;47.904;8.110;2022-08-02T11:28:07;28.60;99.90
21772;DHT22;11047;47.904;8.110;2022-08-02T11:30:35;28.30;99.90
21772;DHT22;11047;47.904;8.110;2022-08-02T11:33:02;28.10;99.90
21772;DHT22;11047;47.904;8.110;2022-08-02T11:35:34;27.70;99.90
21772;DHT22;11047;47.904;8.110;2022-08-02T11:38:22;27.30;99.90
21772;DHT22;11047;47.904;8.110;2022-08-02T11:40:49;27.50;99.90
21772;DHT22;11047;47.904;8.110;2022-08-02T11:43:21;27.60;99.90
21772;DHT22;11047;47.904;8.110;2022-08-02T11:45:50;28.30;99.90
21772;DHT22;11047;47.904;8.110;2022-08-02T11:48:31;28.50;99.90
21772;DHT22;11047;47.904;8.110;2022-08-02T11:51:07;28.60;99.90
21772;DHT22;11047;47.904;8.110;2022-08-02T11:53:46;28.70;99.90
21772;DHT22;11047;47.904;8.110;2022-08-02T11:56:14;28.70;99.90
21772;DHT22;11047;47.904;8.110;2022-08-02T11:58:59;28.60;99.90
21772;DHT22;11047;47.904;8.110;2022-08-02T12:01:27;28.50;99.90
21772;DHT22;11047;47.904;8.110;2022-08-02T12:03:55;28.10;99.90
21772;DHT22;11047;47.904;8.110;2022-08-02T12:06:25;28.30;99.90
21772;DHT22;11047;47.904;8.110;2022-08-02T12:08:58;28.80;99.90
21772;DHT22;11047;47.904;8.110;2022-08-02T12:11:25;28.90;99.90
21772;DHT22;11047;47.904;8.110;2022-08-02T12:13:53;28.80;99.90
21772;DHT22;11047;47.904;8.110;2022-08-02T12:16:22;28.20;99.90
21772;DHT22;11047;47.904;8.110;2022-08-02T12:19:07;28.10;99.90
21772;DHT22;11047;47.904;8.110;2022-08-02T12:21:48;28.40;99.90
21772;DHT22;11047;47.904;8.110;2022-08-02T12:24:31;28.60;99.90
21772;DHT22;11047;47.904;8.110;2022-08-02T12:26:58;28.80;99.90
21772;DHT22;11047;47.904;8.110;2022-08-02T12:29:31;28.50;99.90
21772;DHT22;11047;47.904;8.110;2022-08-02T12:31:59;28.60;99.90
21772;DHT22;11047;47.904;8.110;2022-08-02T12:34:27;28.60;99.90
21772;DHT22;11047;47.904;8.110;2022-08-02T12:36:58;28.50;99.90
21772;DHT22;11047;47.904;8.110;2022-08-02T12:39:37;28.20;99.90
21772;DHT22;11047;47.904;8.110;2022-08-02T12:42:05;28.30;99.90
21772;DHT22;11047;47.904;8.110;2022-08-02T12:44:36;28.30;99.90
21772;DHT22;11047;47.904;8.110;2022-08-02T12:47:05;28.30;99.90
21772;DHT22;11047;47.904;8.110;2022-08-02T12:49:32;28.50;99.90
21772;DHT22;11047;47.904;8.110;2022-08-02T12:51:59;27.80;99.90
21772;DHT22;11047;47.904;8.110;2022-08-02T12:54:28;28.10;99.90
21772;DHT22;11047;47.904;8.110;2022-08-02T12:56:55;28.50;99.90
21772;DHT22;11047;47.904;8.110;2022-08-02T12:59:37;28.50;99.90
21772;DHT22;11047;47.904;8.110;2022-08-02T13:02:05;28.60;99.90
21772;DHT22;11047;47.904;8.110;2022-08-02T13:04:33;28.70;99.90
21772;DHT22;11047;47.904;8.110;2022-08-02T13:07:00;28.70;99.90
21772;DHT22;11047;47.904;8.110;2022-08-02T13:09:27;28.60;99.90
21772;DHT22;11047;47.904;8.110;2022-08-02T13:11:54;28.40;99.90
21772;DHT22;11047;47.904;8.110;2022-08-02T13:14:21;28.40;99.90
21772;DHT22;11047;47.904;8.110;2022-08-02T13:16:49;28.10;99.90
21772;DHT22;11047;47.904;8.110;2022-08-02T13:19:16;28.60;99.90
21772;DHT22;11047;47.904;8.110;2022-08-02T13:21:44;28.20;99.90
21772;DHT22;11047;47.904;8.110;2022-08-02T13:24:11;28.30;99.90
21772;DHT22;11047;47.904;8.110;2022-08-02T13:26:41;28.70;99.90
21772;DHT22;11047;47.904;8.110;2022-08-02T13:29:08;28.80;99.90
21772;DHT22;11047;47.904;8.110;2022-08-02T13:31:35;28.40;99.90
21772;DHT22;11047;47.904;8.110;2022-08-02T13:34:04;28.10;99.90
21772;DHT22;11047;47.904;8.110;2022-08-02T13:36:32;28.30;99.90
21772;DHT22;11047;47.904;8.110;2022-08-02T13:38:59;28.50;99.90
21772;DHT22;11047;47.904;8.110;2022-08-02T13:41:26;28.10;99.90
21772;DHT22;11047;47.904;8.110;2022-08-02T13:43:53;28.10;99.90
21772;DHT22;11047;47.904;8.110;2022-08-02T13:46:20;28.20;99.90
21772;DHT22;11047;47.904;8.110;2022-08-02T13:48:47;28.30;99.90
21772;DHT22;11047;47.904;8.110;2022-08-02T13:51:15;28.20;99.90
21772;DHT22;11047;47.904;8.110;2022-08-02T13:53:42;28.20;99.90
21772;DHT22;11047;47.904;8.110;2022-08-02T13:56:09;28.40;99.90
21772;DHT22;11047;47.904;8.110;2022-08-02T13:58:36;28.60;99.90
21772;DHT22;11047;47.904;8.110;2022-08-02T14:01:03;28.50;99.90
21772;DHT22;11047;47.904;8.110;2022-08-02T14:03:30;28.50;99.90
21772;DHT22;11047;47.904;8.110;2022-08-02T14:05:56;28.40;99.90
21772;DHT22;11047;47.904;8.110;2022-08-02T14:08:25;28.20;99.90
21772;DHT22;11047;47.904;8.110;2022-08-02T14:10:52;28.10;99.90
21772;DHT22;11047;47.904;8.110;2022-08-02T14:13:19;28.20;99.90
21772;DHT22;11047;47.904;8.110;2022-08-02T14:15:45;27.90;99.90
21772;DHT22;11047;47.904;8.110;2022-08-02T14:18:12;27.70;99.90
21772;DHT22;11047;47.904;8.110;2022-08-02T14:20:40;27.80;99.90
21772;DHT22;11047;47.904;8.110;2022-08-02T14:23:07;27.60;99.90
21772;DHT22;11047;47.904;8.110;2022-08-02T14:25:36;27.80;99.90
21772;DHT22;11047;47.904;8.110;2022-08-02T14:28:03;27.60;99.90
21772;DHT22;11047;47.904;8.110;2022-08-02T14:30:30;27.60;99.90
21772;DHT22;11047;47.904;8.110;2022-08-02T14:32:58;27.50;99.90
21772;DHT22;11047;47.904;8.110;2022-08-02T14:35:24;27.50;99.90
21772;DHT22;11047;47.904;8.110;2022-08-02T14:37:51;27.60;99.90
21772;DHT22;11047;47.904;8.110;2022-08-02T14:40:18;27.70;99.90
21772;DHT22;11047;47.904;8.110;2022-08-02T14:42:47;27.80;99.90
21772;DHT22;11047;47.904;8.110;2022-08-02T14:45:14;27.70;99.90
21772;DHT22;11047;47.904;8.110;2022-08-02T14:47:43;27.70;99.90
21772;DHT22;11047;47.904;8.110;2022-08-02T14:50:09;27.60;99.90
21772;DHT22;11047;47.904;8.110;2022-08-02T14:52:38;27.60;99.90
21772;DHT22;11047;47.904;8.110;2022-08-02T14:55:06;27.50;99.90
21772;DHT22;11047;47.904;8.110;2022-08-02T14:57:33;27.70;99.90
21772;DHT22;11047;47.904;8.110;2022-08-02T15:00:02;27.60;99.90
21772;DHT22;11047;47.904;8.110;2022-08-02T15:02:30;27.60;99.90
21772;DHT22;11047;47.904;8.110;2022-08-02T15:04:57;27.50;99.90
21772;DHT22;11047;47.904;8.110;2022-08-02T15:07:24;27.50;99.90
21772;DHT22;11047;47.904;8.110;2022-08-02T15:09:51;27.50;99.90
21772;DHT22;11047;47.904;8.110;2022-08-02T15:12:18;27.40;99.90
21772;DHT22;11047;47.904;8.110;2022-08-02T15:14:45;27.30;99.90
21772;DHT22;11047;47.904;8.110;2022-08-02T15:17:13;27.30;99.90
21772;DHT22;11047;47.904;8.110;2022-08-02T15:19:40;27.20;99.90
21772;DHT22;11047;47.904;8.110;2022-08-02T15:22:07;27.20;99.90
21772;DHT22;11047;47.904;8.110;2022-08-02T15:24:34;26.90;99.90
21772;DHT22;11047;47.904;8.110;2022-08-02T15:27:01;26.90;99.90
21772;DHT22;11047;47.904;8.110;2022-08-02T15:29:28;26.70;99.90
21772;DHT22;11047;47.904;8.110;2022-08-02T15:31:55;27.00;99.90
21772;DHT22;11047;47.904;8.110;2022-08-02T15:34:23;26.90;99.90
21772;DHT22;11047;47.904;8.110;2022-08-02T15:36:50;27.00;99.90
21772;DHT22;11047;47.904;8.110;2022-08-02T15:39:17;27.00;99.90
21772;DHT22;11047;47.904;8.110;2022-08-02T15:41:44;27.00;99.90
21772;DHT22;11047;47.904;8.110;2022-08-02T15:44:10;26.90;99.90
21772;DHT22;11047;47.904;8.110;2022-08-02T15:46:38;26.70;99.90